Time;durP1;ratioP1;P1;durP2;ratioP2;P2;SDS_P1;SDS_P2;PMS_P1;PMS_P2;Temp;Humidity;BMP_temperature;BMP_pressure;BME280_temperature;BME280_humidity;BME280_pressure;Samples;Min_cycle;Max_cycle;Signal;HPM_P1;HPM_P2
2022/10/03 00:01:41;;;;;;;6.40;2.90;;;;;;;20.51;62.21;98845.73;4184839;83;28501;-89
2022/10/03 00:08:11;;;;;;;9.20;3.20;;;;;;;20.43;62.89;98843.15;4185023;83;28530;-89
2022/10/03 00:14:19;;;;;;;6.47;2.67;;;;;;;20.17;62.91;98856.45;4209365;83;28556;-90
2022/10/03 00:20:37;;;;;;;5.85;2.62;;;;;;;;;;4212872;83;28532;-89
2022/10/03 00:27:04;;;;;;;6.35;2.95;;;;;;;19.74;64.43;98856.84;4209574;83;28511;-88
2022/10/03 00:33:19;;;;;;;5.67;2.83;;;;;;;20.33;63.54;98850.95;4178291;83;28501;-87
2022/10/03 00:39:47;;;;;;;6.70;3.40;;;;;;;20.63;62.41;98849.34;4227011;83;28532;-87
2022/10/03 00:46:31;;;;;;;7.65;2.67;;;;;;;20.28;62.81;98846.14;4208923;83;39902;-87
2022/10/03 00:53:04;;;;;;;8.03;3.10;;;;;;;20.28;62.96;98841.51;4202924;83;28605;-86
2022/10/03 00:59:43;;;;;;;6.47;3.10;;;;;;;20.12;62.86;98840.97;4279312;83;28586;-87
2022/10/03 01:06:20;;;;;;;7.10;3.25;;;;;;;20.11;63.09;98835.26;4217709;83;28516;-89
2022/10/03 01:13:03;;;;;;;6.50;3.12;;;;;;;20.20;62.74;98840.28;4212651;83;28537;-87
2022/10/03 01:19:10;;;;;;;6.15;2.70;;;;;;;20.16;62.44;98838.45;4230733;83;28582;-87
2022/10/03 01:25:23;;;;;;;6.10;2.50;;;;;;;20.14;62.32;98834.65;4228047;83;28622;-87
2022/10/03 01:31:33;;;;;;;4.95;2.72;;;;;;;20.48;61.82;98821.77;4182704;83;28540;-89
2022/10/03 01:37:50;;;;;;;6.62;2.83;;;;;;;20.20;62.12;98821.18;4223918;83;28521;-88
2022/10/03 01:43:59;;;;;;;;;;;;;;;19.92;62.63;98814.26;4203519;83;28505;-89
2022/10/03 01:50:08;;;;;;;5.85;2.90;;;;;;;19.69;63.47;98822.02;4196281;83;20239;-89
2022/10/03 01:56:21;;;;;;;6.33;2.92;;;;;;;20.54;61.94;98811.55;4206403;83;28543;-89
2022/10/03 02:03:10;;;;;;;4.97;2.83;;;;;;;20.81;61.22;98819.47;4201450;83;28573;-87
2022/10/03 02:09:42;;;;;;;8.48;3.62;;;;;;;20.46;62.10;98817.14;4228192;83;28520;-88
2022/10/03 02:16:16;;;;;;;7.10;3.27;;;;;;;20.37;61.85;98807.48;4189667;83;28511;-89
2022/10/03 02:22:35;;;;;;;8.00;3.80;;;;;;;20.55;61.93;98812.59;4189936;83;28578;-89
2022/10/03 02:29:27;;;;;;;7.80;3.98;;;;;;;20.05;62.70;98830.45;4203073;83;28560;-87
2022/10/03 02:35:46;;;;;;;10.80;4.35;;;;;;;20.13;62.55;98829.48;4210758;83;28698;-88
2022/10/03 02:42:28;;;;;;;8.88;4.17;;;;;;;19.99;63.43;98830.81;4201271;83;28547;-87
2022/10/03 02:48:47;;;;;;;7.42;3.62;;;;;;;20.18;62.73;98838.39;4206008;83;28512;-87
2022/10/03 02:55:10;;;;;;;9.90;4.08;;;;;;;20.07;62.97;98832.86;4186822;83;28537;-87
2022/10/03 03:01:32;;;;;;;7.37;3.60;;;;;;;20.41;62.03;98830.36;4183247;83;28536;-88
2022/10/03 03:07:45;;;;;;;11.30;3.62;;;;;;;20.19;62.05;98831.02;4102510;85;28539;-87
2022/10/03 03:14:15;;;;;;;7.83;3.40;;;;;;;20.32;62.15;98825.34;4087664;85;28490;-88
2022/10/03 03:20:45;;;;;;;8.90;3.55;;;;;;;20.55;61.82;98828.98;4104869;85;28619;-88
2022/10/03 03:27:35;;;;;;;7.30;3.27;;;;;;;20.83;61.15;98814.56;4167599;85;28515;-86
2022/10/03 03:33:52;;;;;;;9.13;3.52;;;;;;;20.42;61.88;98808.77;4123020;85;28579;-87
2022/10/03 03:40:14;;;;;;;6.75;3.45;;;;;;;20.45;62.57;98812.25;4138979;85;28502;-88
2022/10/03 03:46:52;;;;;;;10.18;4.20;;;;;;;20.67;62.34;98815.38;4133823;84;28645;-88
2022/10/03 03:53:20;;;;;;;7.78;3.72;;;;;;;20.75;62.53;98811.39;4096114;85;28534;-86
2022/10/03 04:00:05;;;;;;;7.85;3.27;;;;;;;21.33;60.97;98811.02;4119793;85;28500;-89
2022/10/03 04:06:12;;;;;;;7.20;3.50;;;;;;;20.83;61.44;98808.52;4111143;85;29030;-89
2022/10/03 04:12:40;;;;;;;6.95;3.33;;;;;;;20.54;62.25;98800.05;4130021;85;28574;-88
2022/10/03 04:19:22;;;;;;;9.10;3.95;;;;;;;20.46;62.68;98795.30;4103410;85;28533;-87
2022/10/03 04:25:34;;;;;;;7.17;3.40;;;;;;;20.45;62.32;98808.16;4116772;85;28557;-89
2022/10/03 04:32:14;;;;;;;7.92;3.12;;;;;;;20.22;62.90;98806.42;4210481;83;28489;-91
2022/10/03 04:38:41;;;;;;;10.08;3.30;;;;;;;20.35;63.04;98794.70;4194606;83;28505;-86
2022/10/03 04:44:51;;;;;;;7.70;3.40;;;;;;;20.24;62.85;98794.06;4209656;83;29031;-90
2022/10/03 04:51:19;;;;;;;8.13;3.25;;;;;;;20.56;62.25;98795.09;4175568;83;28639;-92
2022/10/03 04:57:38;;;;;;;10.08;3.67;;;;;;;20.31;63.23;98789.03;4067786;85;28496;-87
2022/10/03 05:03:54;;;;;;;8.63;3.62;;;;;;;20.22;63.02;98789.47;4097310;84;28926;-86
2022/10/03 05:10:26;;;;;;;5.95;3.15;;;;;;;20.25;62.83;98798.41;4089785;85;46296;-84
2022/10/03 05:16:45;;;;;;;6.78;2.92;;;;;;;20.72;62.09;98801.08;4202207;83;28529;-85
2022/10/03 05:23:15;;;;;;;8.25;2.83;;;;;;;20.44;63.09;98800.25;4199530;83;28505;-84
2022/10/03 05:29:28;;;;;;;7.83;2.75;;;;;;;19.91;63.42;98803.63;4205414;83;28494;-84
2022/10/03 05:35:51;;;;;;;7.80;3.87;;;;;;;20.07;63.98;98798.75;4200099;83;28552;-85
2022/10/03 05:42:24;;;;;;;9.05;2.77;;;;;;;19.89;64.17;98818.13;4180859;83;28525;-83
2022/10/03 05:48:46;;;;;;;7.47;2.52;;;;;;;19.68;64.99;98820.37;4193999;83;28533;-84
2022/10/03 05:55:29;;;;;;;7.40;2.83;;;;;;;20.04;64.73;98813.80;4191070;83;28552;-84
2022/10/03 06:01:57;;;;;;;7.25;3.08;;;;;;;20.79;62.79;98810.23;4156020;83;28588;-84
2022/10/03 06:08:40;;;;;;;6.83;2.22;;;;;;;21.02;62.08;98813.06;4227145;83;28481;-84
2022/10/03 06:15:26;;;;;;;5.87;2.02;;;;;;;20.24;62.95;98826.82;4262489;83;28525;-85
2022/10/03 06:21:57;;;;;;;6.30;1.80;;;;;;;19.89;63.68;98842.69;4197179;83;28534;-85
2022/10/03 06:28:31;;;;;;;5.17;1.80;;;;;;;20.29;62.08;98847.22;4221207;83;28485;-85
2022/10/03 06:35:23;;;;;;;5.05;1.70;;;;;;;20.10;61.65;98856.84;4206627;83;28627;-85
2022/10/03 06:42:04;;;;;;;6.17;2.00;;;;;;;20.31;61.53;98868.20;4188998;84;28595;-84
2022/10/03 06:48:26;;;;;;;5.00;1.95;;;;;;;19.82;62.49;98851.80;4226120;83;28545;-84
2022/10/03 06:54:40;;;;;;;5.40;2.00;;;;;;;20.56;61.13;98853.81;4169441;83;28478;-85
2022/10/03 07:01:07;;;;;;;6.03;2.05;;;;;;;20.62;60.09;98848.52;4181619;83;28543;-85
2022/10/03 07:08:01;;;;;;;3.95;1.85;;;;;;;20.62;60.47;98848.52;4189385;83;28580;-84
2022/10/03 07:14:17;;;;;;;6.85;2.22;;;;;;;19.98;61.31;98859.20;4176597;84;28597;-85
2022/10/03 07:20:43;;;;;;;2.70;1.50;;;;;;;20.44;61.32;98855.69;4061805;85;28506;-85
2022/10/03 07:27:20;;;;;;;5.80;1.87;;;;;;;20.10;60.99;98858.20;4061931;85;28593;-86
2022/10/03 07:34:04;;;;;;;6.20;1.90;;;;;;;20.58;60.21;98854.88;4069348;85;28581;-84
2022/10/03 07:40:48;;;;;;;3.73;1.50;;;;;;;20.37;60.32;98861.30;4036875;86;33855;-84
2022/10/03 07:47:11;;;;;;;6.97;2.58;;;;;;;20.11;62.05;98858.45;4056515;85;28510;-84
2022/10/03 07:53:37;;;;;;;5.47;1.80;;;;;;;20.18;62.17;98869.77;4073048;85;28527;-85
2022/10/03 08:00:06;;;;;;;6.28;2.25;;;;;;;19.37;63.11;98880.27;4082153;85;28499;-84
2022/10/03 08:06:26;;;;;;;7.65;2.12;;;;;;;19.48;63.33;98880.37;4101149;85;28601;-85
2022/10/03 08:12:58;;;;;;;7.70;2.27;;;;;;;19.88;63.47;98888.80;4048870;85;28533;-85
2022/10/03 08:19:28;;;;;;;6.37;2.08;;;;;;;20.28;62.33;98889.28;4084402;85;28522;-85
2022/10/03 08:25:53;;;;;;;7.62;2.35;;;;;;;20.16;62.69;98881.55;4207849;83;28573;-85
2022/10/03 08:32:17;;;;;;;7.77;2.40;;;;;;;20.72;63.15;98867.19;4150694;83;28585;-86
2022/10/03 08:38:59;;;;;;;6.37;2.37;;;;;;;19.80;64.68;98873.93;4191257;83;28521;-85
2022/10/03 08:45:18;;;;;;;4.42;1.75;;;;;;;20.41;62.53;98886.88;4169882;83;28499;-85
2022/10/03 08:51:43;;;;;;;6.12;1.87;;;;;;;20.80;61.79;98880.14;4202388;83;28521;-84
2022/10/03 08:58:22;;;;;;;5.35;1.92;;;;;;;21.17;62.13;98885.14;4191585;83;28530;-83
2022/10/03 09:04:50;;;;;;;6.10;2.17;;;;;;;21.45;60.29;98886.47;4197812;82;28549;-84
2022/10/03 09:11:34;;;;;;;6.92;2.20;;;;;;;21.37;60.41;98891.30;4112752;83;28542;-85
2022/10/03 09:18:03;;;;;;;4.80;1.87;;;;;;;21.65;59.88;98898.08;4206765;82;28957;-84
2022/10/03 09:24:38;;;;;;;5.83;2.10;;;;;;;20.85;60.28;98901.13;4172977;83;28565;-85
2022/10/03 09:31:14;;;;;;;6.35;1.90;;;;;;;21.68;59.79;98892.58;4195410;83;28628;-84
2022/10/03 09:37:47;;;;;;;10.23;2.73;;;;;;;21.79;59.73;98884.92;4205010;83;28531;-85
2022/10/03 09:44:09;;;;;;;4.95;1.92;;;;;;;21.82;59.58;98884.33;4211234;83;28581;-85
2022/10/03 09:50:37;;;;;;;4.30;1.90;;;;;;;22.16;59.02;98900.74;4193004;83;28489;-85
2022/10/03 09:57:13;;;;;;;3.67;1.90;;;;;;;21.99;58.76;98895.39;4186020;83;28497;-84
2022/10/03 10:03:59;;;;;;;2.60;1.57;;;;;;;21.99;58.75;98898.70;4177373;83;28555;-84
2022/10/03 10:10:40;;;;;;;3.27;1.30;;;;;;;21.18;59.86;98893.59;4191405;83;28505;-84
2022/10/03 10:17:04;;;;;;;5.25;1.75;;;;;;;21.06;60.02;98893.88;4158487;83;28486;-85
2022/10/03 10:23:37;;;;;;;5.47;1.98;;;;;;;20.69;60.56;98893.17;4179375;83;28540;-83
2022/10/03 10:30:27;;;;;;;3.67;1.72;;;;;;;20.85;60.72;98882.79;4185075;83;28544;-84
2022/10/03 10:37:05;;;;;;;5.53;1.95;;;;;;;20.77;61.06;98893.02;4036004;87;28544;-83
2022/10/03 10:43:38;;;;;;;4.62;2.02;;;;;;;20.63;62.03;98895.77;4227194;83;28552;-84
2022/10/03 10:50:05;;;;;;;5.12;2.00;;;;;;;20.24;64.06;98905.98;4223504;83;28544;-84
2022/10/03 10:56:37;;;;;;;4.78;1.90;;;;;;;20.63;62.69;98912.16;4214383;83;28505;-84
2022/10/03 11:03:16;;;;;;;3.83;1.50;;;;;;;20.41;63.77;98913.63;4200196;83;28495;-85
2022/10/03 11:09:52;;;;;;;4.15;1.55;;;;;;;19.82;65.26;98910.44;4134843;83;28528;-84
2022/10/03 11:16:22;;;;;;;5.42;2.83;;;;;;;19.94;65.36;98903.20;4204111;83;28589;-85
2022/10/03 11:23:01;;;;;;;1.60;1.40;;;;;;;19.91;65.03;98921.77;4171458;83;28510;-85
2022/10/03 11:29:31;;;;;;;3.65;1.40;;;;;;;19.70;66.36;98930.00;4145980;83;28490;-85
2022/10/03 11:36:12;;;;;;;2.85;1.40;;;;;;;19.82;65.23;98926.27;4199191;84;28497;-85
2022/10/03 11:42:38;;;;;;;3.98;1.22;;;;;;;20.03;64.82;98932.80;4228496;83;28583;-85
2022/10/03 11:48:54;;;;;;;2.42;1.40;;;;;;;20.50;63.20;98927.94;4151191;83;28560;-85
2022/10/03 11:55:24;;;;;;;3.80;1.30;;;;;;;20.17;63.90;98932.30;4164409;83;28488;-85
2022/10/03 12:01:42;;;;;;;3.02;1.50;;;;;;;19.98;63.60;98932.88;4167565;84;28434;-85
2022/10/03 12:14:53;;;;;;;2.30;0.90;;;;;;;20.65;62.18;98939.14;4206737;82;28575;-85
2022/10/03 12:21:22;;;;;;;1.95;0.70;;;;;;;21.37;60.30;98937.78;4227703;81;28513;-85
2022/10/03 12:28:01;;;;;;;1.67;0.80;;;;;;;21.08;59.96;98953.94;4170802;82;28542;-85
2022/10/03 12:34:38;;;;;;;2.95;0.70;;;;;;;20.93;60.13;98962.45;4175374;81;28531;-85
2022/10/03 12:40:46;;;;;;;1.85;0.72;;;;;;;21.70;58.50;98961.47;4282978;81;28604;-84
2022/10/03 12:46:58;;;;;;;1.35;0.70;;;;;;;21.50;58.91;98974.44;4224051;82;28588;-83
2022/10/03 12:53:14;;;;;;;2.47;1.00;;;;;;;22.06;57.96;98981.17;4197903;81;28553;-83
2022/10/03 12:59:45;;;;;;;1.80;0.90;;;;;;;22.01;58.24;98965.67;4205876;83;28604;-83
2022/10/03 13:06:04;;;;;;;3.50;1.20;;;;;;;21.79;58.32;98971.12;4120532;83;28509;-83
2022/10/03 13:12:17;;;;;;;3.47;1.37;;;;;;;20.80;60.19;98985.87;4240084;81;28539;-78
2022/10/03 13:18:41;;;;;;;1.87;1.10;;;;;;;20.95;61.56;98988.91;4279565;81;28518;-77
2022/10/03 13:25:04;;;;;;;2.22;1.00;;;;;;;20.02;63.42;98988.49;4290516;81;28700;-80
2022/10/03 13:31:22;;;;;;;2.25;1.05;;;;;;;20.39;63.21;98974.53;4266958;82;28505;-82
2022/10/03 13:37:32;;;;;;;2.27;0.80;;;;;;;20.68;62.37;98962.58;4288078;81;28599;-81
2022/10/03 13:43:37;;;;;;;2.60;1.10;;;;;;;20.18;62.38;98971.33;4270257;82;28553;-78
2022/10/03 13:50:00;;;;;;;2.85;1.00;;;;;;;20.94;61.81;98969.53;4261723;83;28476;-79
2022/10/03 13:56:44;;;;;;;3.08;1.42;;;;;;;19.86;63.67;98966.05;4239890;83;28543;-84
2022/10/03 14:03:06;;;;;;;3.15;1.30;;;;;;;19.96;62.97;98959.64;4246472;83;28543;-79
2022/10/03 14:09:13;;;;;;;;;;;;;;;21.00;60.11;98971.06;4268075;81;28490;-78
2022/10/03 14:15:54;;;;;;;4.58;1.72;;;;;;;20.90;59.73;98991.17;4195392;83;21071;-78
2022/10/03 14:22:19;;;;;;;4.58;1.65;;;;;;;20.90;59.22;98980.25;4206279;82;28524;-77
2022/10/03 14:29:01;;;;;;;5.10;2.22;;;;;;;21.38;59.09;98983.15;4144077;83;28558;-77
2022/10/03 14:35:40;;;;;;;4.28;2.00;;;;;;;21.00;59.47;98995.66;4224994;81;28638;-78
2022/10/03 14:41:46;;;;;;;5.35;2.25;;;;;;;21.69;58.74;98998.16;4146731;83;28544;-77
2022/10/03 14:47:56;;;;;;;5.50;2.30;;;;;;;21.10;59.99;99013.23;4220239;81;28576;-77
2022/10/03 14:54:07;;;;;;;8.13;2.40;;;;;;;20.75;59.62;99008.63;4193011;82;28547;-77
2022/10/03 15:00:46;;;;;;;8.28;2.62;;;;;;;21.35;59.14;99007.01;4188447;83;28540;-77
2022/10/03 15:06:54;;;;;;;7.22;2.50;;;;;;;20.82;59.29;99023.28;4166277;82;28579;-77
2022/10/03 15:13:05;;;;;;;3.67;1.72;;;;;;;;;;4259280;80;28489;-78
2022/10/03 15:19:16;;;;;;;4.92;1.92;;;;;;;20.89;58.26;99018.25;4304169;81;28554;-78
2022/10/03 15:25:27;;;;;;;4.15;1.35;;;;;;;21.27;57.42;99027.67;4276157;81;28542;-81
2022/10/03 15:31:36;;;;;;;3.50;1.27;;;;;;;20.18;58.85;99028.64;4298768;80;28555;-82
2022/10/03 15:37:42;;;;;;;2.42;1.40;;;;;;;19.99;59.05;99040.36;4297595;81;28505;-82
2022/10/03 15:44:07;;;;;;;4.50;1.80;;;;;;;20.56;58.50;99033.25;4256349;82;28564;-82
2022/10/03 15:50:22;;;;;;;2.72;1.90;;;;;;;20.35;59.03;99028.12;4308885;81;28571;-92
2022/10/03 15:56:49;;;;;;;5.30;2.67;;;;;;;20.33;59.51;99046.72;4297352;81;28524;-92
2022/10/03 16:02:54;;;;;;;6.55;2.72;;;;;;;20.47;59.53;99036.66;4298442;80;28527;-87
2022/10/03 16:09:08;;;;;;;4.40;2.45;;;;;;;20.42;59.77;99051.77;4263498;81;28522;-89
2022/10/03 16:15:25;;;;;;;4.00;2.35;;;;;;;20.13;61.45;99041.81;4229634;81;28563;-90
2022/10/03 16:21:45;;;;;;;8.03;2.95;;;;;;;20.15;60.86;99056.51;4194126;83;28557;-82
2022/10/03 16:27:55;;;;;;;4.75;2.75;;;;;;;20.48;60.83;99055.23;4223809;83;28517;-85
2022/10/03 16:34:05;;;;;;;5.85;3.17;;;;;;;19.92;61.76;99055.70;4177971;84;28536;-82
2022/10/03 16:40:15;;;;;;;7.92;3.30;;;;;;;20.06;61.93;99059.92;4176741;84;28552;-88
2022/10/03 16:46:18;;;;;;;7.62;3.20;;;;;;;19.88;62.72;99059.31;4223728;83;28521;-79
2022/10/03 16:52:25;;;;;;;8.23;3.87;;;;;;;19.46;63.83;99076.70;4228715;83;28576;-85
2022/10/03 16:58:37;;;;;;;10.53;5.03;;;;;;;19.91;62.61;99073.19;4140719;83;28538;-83
2022/10/03 17:04:50;;;;;;;5.40;3.15;;;;;;;20.12;62.75;99082.50;4157615;83;28531;-84
2022/10/03 17:10:57;;;;;;;8.33;4.10;;;;;;;20.50;61.44;99083.59;4209559;83;28577;-81
2022/10/03 17:17:22;;;;;;;8.28;4.03;;;;;;;20.31;61.61;99083.86;4211811;82;28570;-82
2022/10/03 17:23:40;;;;;;;7.50;3.52;;;;;;;19.83;62.46;99096.19;4251742;81;28496;-80
2022/10/03 17:29:50;;;;;;;8.03;3.42;;;;;;;19.80;62.65;99097.61;4291197;81;28464;-83
2022/10/03 17:36:35;;;;;;;5.25;2.98;;;;;;;19.90;62.41;99101.58;4298903;81;28534;-82
2022/10/03 17:43:05;;;;;;;6.97;3.58;;;;;;;19.83;62.21;99105.20;4271157;81;28644;-83
2022/10/03 17:49:24;;;;;;;6.58;3.37;;;;;;;20.02;62.27;99113.44;4285307;81;28570;-85
2022/10/03 17:55:40;;;;;;;7.15;3.65;;;;;;;19.73;62.69;99108.05;4270644;81;28601;-83
2022/10/03 18:01:46;;;;;;;9.73;3.35;;;;;;;19.84;62.05;99117.73;4275851;81;28537;-84
2022/10/03 18:07:53;;;;;;;7.03;2.83;;;;;;;19.88;61.70;99113.88;4271036;82;28521;-82
2022/10/03 18:14:27;;;;;;;6.67;3.05;;;;;;;20.10;61.41;99125.65;4272780;81;28596;-82
2022/10/03 18:20:43;;;;;;;5.45;3.22;;;;;;;20.12;61.61;99116.61;4251949;82;28561;-83
2022/10/03 18:27:18;;;;;;;6.28;3.27;;;;;;;20.33;60.88;99128.05;4268197;81;28683;-83
2022/10/03 18:33:31;;;;;;;7.22;3.67;;;;;;;20.05;61.56;99125.16;4347589;80;28569;-82
2022/10/03 18:39:36;;;;;;;7.08;3.30;;;;;;;19.74;62.08;99138.30;4389649;79;28565;-82
2022/10/03 18:45:44;;;;;;;7.15;3.20;;;;;;;19.27;63.54;99133.33;4361361;79;28619;-80
2022/10/03 18:52:12;;;;;;;7.55;3.52;;;;;;;19.57;62.48;99143.65;4344175;79;28460;-82
2022/10/03 18:58:19;;;;;;;7.20;3.35;;;;;;;19.44;63.25;99142.97;4333683;79;28554;-85
2022/10/03 19:04:39;;;;;;;6.28;2.70;;;;;;;19.40;63.20;99156.93;4337778;79;28541;-84
2022/10/03 19:11:02;;;;;;;5.40;2.60;;;;;;;19.85;63.03;99170.39;4357186;79;28512;-85
2022/10/03 19:17:32;;;;;;;4.72;2.30;;;;;;;19.15;64.91;99181.39;4345057;79;28536;-82
2022/10/03 19:23:40;;;;;;;8.28;2.87;;;;;;;20.00;63.14;99181.71;4331357;80;28560;-83
2022/10/03 19:29:49;;;;;;;5.35;3.12;;;;;;;19.89;63.30;99176.34;4319450;80;28623;-80
2022/10/03 19:35:56;;;;;;;7.78;3.40;;;;;;;19.76;64.03;99183.30;4308627;81;28566;-81
2022/10/03 19:42:03;;;;;;;6.22;3.27;;;;;;;19.74;64.19;99175.95;4334045;80;28531;-78
2022/10/03 19:48:10;;;;;;;6.35;3.37;;;;;;;20.38;62.76;99172.22;4343286;80;28577;-81
2022/10/03 19:54:31;;;;;;;7.15;3.87;;;;;;;20.20;62.36;99182.84;4319625;80;28514;-83
2022/10/03 20:00:38;;;;;;;7.65;4.08;;;;;;;20.14;62.40;99174.98;4325022;80;28484;-79
2022/10/03 20:06:45;;;;;;;8.68;4.15;;;;;;;20.16;62.67;99168.13;4312309;80;28551;-80
2022/10/03 20:12:52;;;;;;;8.85;4.47;;;;;;;20.14;63.08;99172.25;4318045;80;28541;-81
2022/10/03 20:18:58;;;;;;;8.77;4.00;;;;;;;20.20;63.05;99165.63;4319682;80;28492;-79
2022/10/03 20:25:07;;;;;;;8.73;4.12;;;;;;;20.14;63.30;99168.98;4311149;80;28625;-78
2022/10/03 20:31:11;;;;;;;7.10;3.77;;;;;;;19.79;64.08;99176.45;4321915;79;28563;-79
2022/10/03 20:37:36;;;;;;;7.40;3.47;;;;;;;19.28;64.84;99173.12;4319869;80;28513;-79
2022/10/03 20:43:49;;;;;;;10.70;4.03;;;;;;;19.55;64.75;99180.52;4324082;80;28528;-78
2022/10/03 20:49:58;;;;;;;8.33;3.50;;;;;;;19.62;64.20;99172.25;4332054;81;28541;-78
2022/10/03 20:56:07;;;;;;;6.70;3.37;;;;;;;19.88;63.67;99177.98;4347812;81;28553;-79
2022/10/03 21:02:37;;;;;;;7.55;3.33;;;;;;;19.66;64.12;99182.03;4285833;82;28530;-79
2022/10/03 21:08:41;;;;;;;6.50;3.02;;;;;;;19.59;64.24;99177.45;4285815;81;28535;-79
2022/10/03 21:14:49;;;;;;;7.22;3.17;;;;;;;19.37;65.10;99176.03;4407986;80;28586;-79
2022/10/03 21:21:26;;;;;;;8.18;3.20;;;;;;;19.69;64.81;99173.27;4377738;79;28575;-79
2022/10/03 21:27:31;;;;;;;8.83;2.95;;;;;;;19.68;64.97;99175.73;4430339;80;28613;-79
2022/10/03 21:33:39;;;;;;;5.90;3.00;;;;;;;19.81;64.33;99189.25;4411322;79;28586;-79
2022/10/03 21:40:07;;;;;;;6.65;2.87;;;;;;;19.70;64.33;99188.53;4339821;80;28515;-78
2022/10/03 21:46:45;;;;;;;6.58;2.92;;;;;;;19.68;64.20;99189.91;4429511;79;28521;-78
2022/10/03 21:53:10;;;;;;;4.92;2.75;;;;;;;19.42;64.90;99181.98;4430111;80;28517;-77
2022/10/03 21:59:29;;;;;;;8.43;3.22;;;;;;;19.48;64.95;99178.92;4385872;80;28592;-78
2022/10/03 22:05:44;;;;;;;9.28;3.37;;;;;;;19.18;65.67;99188.98;4259062;82;28481;-79
2022/10/03 22:11:56;;;;;;;5.33;3.08;;;;;;;19.27;65.94;99182.93;4246037;82;28642;-80
2022/10/03 22:18:06;;;;;;;6.33;2.92;;;;;;;19.37;65.46;99192.38;4349301;81;28484;-78
2022/10/03 22:24:36;;;;;;;10.58;3.47;;;;;;;19.49;65.40;99186.00;4343895;80;28567;-78
2022/10/03 22:30:43;;;;;;;10.93;3.92;;;;;;;19.58;65.16;99177.20;4327395;80;28535;-78
2022/10/03 22:36:45;;;;;;;9.78;3.02;;;;;;;19.20;65.66;99169.64;4304577;81;28489;-79
2022/10/03 22:42:51;;;;;;;9.03;3.35;;;;;;;19.15;65.87;99171.85;4274129;81;28585;-77
2022/10/03 22:49:14;;;;;;;7.87;3.27;;;;;;;19.04;66.08;99169.74;4311924;81;28544;-78
2022/10/03 22:55:17;;;;;;;10.00;3.40;;;;;;;18.79;67.39;99173.43;4276778;82;50206;-77
2022/10/03 23:01:20;;;;;;;9.83;3.30;;;;;;;18.88;67.38;99169.58;4302267;82;28575;-77
2022/10/03 23:07:57;;;;;;;12.40;3.60;;;;;;;19.16;66.65;99165.30;4365215;81;28566;-77
2022/10/03 23:14:07;;;;;;;8.18;3.42;;;;;;;18.99;67.46;99171.66;4364720;80;28523;-77
2022/10/03 23:20:45;;;;;;;10.28;4.42;;;;;;;18.97;68.65;99167.88;4356586;81;28605;-77
2022/10/03 23:27:04;;;;;;;11.22;4.58;;;;;;;18.89;68.83;99155.66;4316431;81;28565;-78
2022/10/03 23:33:09;;;;;;;9.65;3.72;;;;;;;18.86;69.68;99162.24;4283838;81;28553;-77
2022/10/03 23:39:31;;;;;;;9.25;3.72;;;;;;;18.80;69.90;99158.75;4305174;80;28528;-77
2022/10/03 23:45:35;;;;;;;10.63;3.72;;;;;;;19.21;68.02;99162.55;4302653;81;28504;-78
2022/10/03 23:51:37;;;;;;;9.18;3.52;;;;;;;19.16;68.00;99153.57;4317257;81;28529;-78
2022/10/03 23:57:41;;;;;;;10.80;3.90;;;;;;;18.99;68.20;99145.25;4305289;81;28531;-79
